N72CC MYNN-KMIA
Flight info
| Callsign | N72CC |
|---|---|
| Flight time | 0h 43m |
| Altitude | 24000 |
| Route | JAVIS2 NICKO VIICE2 |
| Aircraft | C750/M-SBDE3FGHRWXY/S |
Departure
| Time | 2026-05-04 17:42 |
|---|---|
| Airport | Lynden Pindling International Airport (MYNN) |
Arrival
| Time | 2026-05-04 18:25 |
|---|---|
| Airport | Miami International Airport (KMIA) |
| Time | Latitude | Longitude | Altitude | Speed | Heading |
|---|---|---|---|---|---|
| 2026-05-04 17:20 | 25.03086 | -77.45661 | 0 ft | 0 kts | 225° |
| 2026-05-04 17:34 | 25.03127 | -77.45731 | 13 ft | 6 kts | 354° |
| 2026-05-04 17:34 | 25.03134 | -77.45731 | 13 ft | 0 kts | 360° |
| 2026-05-04 17:35 | 25.03284 | -77.45679 | 13 ft | 9 kts | 20° |
| 2026-05-04 17:35 | 25.03409 | -77.45630 | 14 ft | 12 kts | 20° |
| 2026-05-04 17:35 | 25.03477 | -77.45569 | 14 ft | 11 kts | 46° |
| 2026-05-04 17:36 | 25.03518 | -77.45523 | 13 ft | 9 kts | 44° |
| 2026-05-04 17:36 | 25.03598 | -77.45553 | 13 ft | 19 kts | 318° |
| 2026-05-04 17:36 | 25.03717 | -77.45685 | 14 ft | 30 kts | 314° |
| 2026-05-04 17:36 | 25.03880 | -77.45867 | 14 ft | 30 kts | 320° |
| 2026-05-04 17:37 | 25.03982 | -77.45981 | 14 ft | 16 kts | 312° |
| 2026-05-04 17:37 | 25.04062 | -77.46072 | 14 ft | 16 kts | 315° |
| 2026-05-04 17:37 | 25.04141 | -77.46159 | 14 ft | 16 kts | 315° |
| 2026-05-04 17:37 | 25.04217 | -77.46245 | 13 ft | 15 kts | 314° |
| 2026-05-04 17:38 | 25.04291 | -77.46329 | 13 ft | 17 kts | 314° |
| 2026-05-04 17:38 | 25.04377 | -77.46421 | 14 ft | 18 kts | 319° |
| 2026-05-04 17:38 | 25.04470 | -77.46524 | 14 ft | 20 kts | 316° |
| 2026-05-04 17:38 | 25.04570 | -77.46633 | 14 ft | 21 kts | 314° |
| 2026-05-04 17:39 | 25.04787 | -77.46868 | 14 ft | 23 kts | 315° |
| 2026-05-04 17:39 | 25.04898 | -77.46998 | 14 ft | 23 kts | 311° |
| 2026-05-04 17:39 | 25.05012 | -77.47124 | 14 ft | 23 kts | 316° |
| 2026-05-04 17:40 | 25.05125 | -77.47251 | 14 ft | 23 kts | 315° |
| 2026-05-04 17:40 | 25.05219 | -77.47385 | 15 ft | 21 kts | 280° |
| 2026-05-04 17:40 | 25.05216 | -77.47431 | 15 ft | 0 kts | 255° |
| 2026-05-04 17:41 | 25.05211 | -77.47449 | 16 ft | 3 kts | 255° |
| 2026-05-04 17:41 | 25.05208 | -77.47461 | 16 ft | 2 kts | 255° |
| 2026-05-04 17:41 | 25.05198 | -77.47496 | 17 ft | 7 kts | 246° |
| 2026-05-04 17:41 | 25.05166 | -77.47538 | 17 ft | 7 kts | 189° |
| 2026-05-04 17:42 | 25.05127 | -77.47508 | 17 ft | 18 kts | 134° |
| 2026-05-04 17:42 | 25.04758 | -77.47094 | 17 ft | 135 kts | 135° |
| 2026-05-04 17:42 | 25.03944 | -77.46223 | 293 ft | 176 kts | 135° |
| 2026-05-04 17:42 | 25.03020 | -77.45271 | 1058 ft | 185 kts | 139° |
| 2026-05-04 17:43 | 25.02116 | -77.44212 | 1786 ft | 197 kts | 134° |
| 2026-05-04 17:43 | 25.01127 | -77.43064 | 2509 ft | 213 kts | 138° |
| 2026-05-04 17:43 | 24.99780 | -77.42381 | 3171 ft | 219 kts | 177° |
| 2026-05-04 17:43 | 24.98318 | -77.42682 | 3989 ft | 213 kts | 210° |
| 2026-05-04 17:44 | 24.97200 | -77.43712 | 4931 ft | 209 kts | 227° |
| 2026-05-04 17:44 | 24.96171 | -77.44850 | 5934 ft | 210 kts | 227° |
| 2026-05-04 17:45 | 24.92953 | -77.48331 | 8856 ft | 220 kts | 228° |
| 2026-05-04 17:45 | 24.91857 | -77.49518 | 9877 ft | 221 kts | 228° |
| 2026-05-04 17:45 | 24.90765 | -77.50698 | 10830 ft | 219 kts | 229° |
| 2026-05-04 17:45 | 24.89673 | -77.51880 | 11678 ft | 223 kts | 229° |
| 2026-05-04 17:46 | 24.88516 | -77.53140 | 12021 ft | 251 kts | 228° |
| 2026-05-04 17:46 | 24.87189 | -77.54591 | 11982 ft | 280 kts | 230° |
| 2026-05-04 17:46 | 24.86172 | -77.56355 | 11948 ft | 268 kts | 250° |
| 2026-05-04 17:46 | 24.85795 | -77.58333 | 11964 ft | 265 kts | 268° |
| 2026-05-04 17:47 | 24.86038 | -77.60344 | 11980 ft | 266 kts | 283° |
| 2026-05-04 17:47 | 24.86503 | -77.62327 | 11994 ft | 268 kts | 283° |
| 2026-05-04 17:47 | 24.86959 | -77.64316 | 11982 ft | 268 kts | 283° |
| 2026-05-04 17:47 | 24.87409 | -77.66304 | 11979 ft | 267 kts | 283° |
| 2026-05-04 17:48 | 24.87861 | -77.68286 | 11981 ft | 266 kts | 283° |
| 2026-05-04 17:48 | 24.88313 | -77.70262 | 11979 ft | 266 kts | 283° |
| 2026-05-04 17:48 | 24.88764 | -77.72242 | 11979 ft | 266 kts | 283° |
| 2026-05-04 17:48 | 24.89214 | -77.74219 | 11988 ft | 267 kts | 283° |
| 2026-05-04 17:49 | 24.89666 | -77.76207 | 11970 ft | 267 kts | 283° |
| 2026-05-04 17:49 | 24.90110 | -77.78160 | 11967 ft | 266 kts | 283° |
| 2026-05-04 17:49 | 24.90558 | -77.80130 | 11962 ft | 265 kts | 283° |
| 2026-05-04 17:49 | 24.91007 | -77.82107 | 11965 ft | 265 kts | 283° |
| 2026-05-04 17:50 | 24.91455 | -77.84080 | 11969 ft | 266 kts | 283° |
| 2026-05-04 17:50 | 24.91905 | -77.86064 | 11965 ft | 266 kts | 283° |
| 2026-05-04 17:50 | 24.92362 | -77.88079 | 12336 ft | 272 kts | 283° |
| 2026-05-04 17:50 | 24.92810 | -77.90054 | 13584 ft | 263 kts | 283° |
| 2026-05-04 17:51 | 24.93259 | -77.92042 | 14332 ft | 270 kts | 282° |
| 2026-05-04 17:51 | 24.93717 | -77.94065 | 15116 ft | 273 kts | 282° |
| 2026-05-04 17:51 | 24.94178 | -77.96108 | 15905 ft | 277 kts | 282° |
| 2026-05-04 17:51 | 24.94641 | -77.98157 | 16705 ft | 281 kts | 282° |
| 2026-05-04 17:52 | 24.95116 | -78.00262 | 17535 ft | 285 kts | 282° |
| 2026-05-04 17:52 | 24.95598 | -78.02396 | 18374 ft | 289 kts | 281° |
| 2026-05-04 17:52 | 24.96084 | -78.04554 | 19132 ft | 292 kts | 281° |
| 2026-05-04 17:52 | 24.96575 | -78.06733 | 19929 ft | 295 kts | 281° |
| 2026-05-04 17:53 | 24.97074 | -78.08946 | 20740 ft | 298 kts | 281° |
| 2026-05-04 17:53 | 24.97575 | -78.11176 | 21547 ft | 302 kts | 281° |
| 2026-05-04 17:53 | 24.98082 | -78.13432 | 22358 ft | 306 kts | 281° |
| 2026-05-04 17:53 | 24.98597 | -78.15723 | 23169 ft | 310 kts | 281° |
| 2026-05-04 17:54 | 24.99004 | -78.18061 | 23829 ft | 315 kts | 273° |
| 2026-05-04 17:54 | 24.98907 | -78.20541 | 23966 ft | 336 kts | 264° |
| 2026-05-04 17:54 | 24.98663 | -78.23203 | 23982 ft | 361 kts | 264° |
| 2026-05-04 17:54 | 24.98429 | -78.26050 | 23984 ft | 384 kts | 265° |
| 2026-05-04 17:55 | 24.98204 | -78.29045 | 23986 ft | 396 kts | 265° |
| 2026-05-04 17:55 | 24.97965 | -78.32062 | 23978 ft | 395 kts | 264° |
| 2026-05-04 17:55 | 24.97714 | -78.35080 | 23973 ft | 395 kts | 264° |
| 2026-05-04 17:55 | 24.97466 | -78.38102 | 23974 ft | 395 kts | 264° |
| 2026-05-04 17:56 | 24.97223 | -78.41126 | 23970 ft | 395 kts | 264° |
| 2026-05-04 17:56 | 24.96982 | -78.44105 | 23971 ft | 396 kts | 264° |
| 2026-05-04 17:56 | 24.96734 | -78.47128 | 23968 ft | 396 kts | 264° |
| 2026-05-04 17:56 | 24.96485 | -78.50155 | 23964 ft | 396 kts | 264° |
| 2026-05-04 17:57 | 24.96237 | -78.53184 | 23965 ft | 396 kts | 264° |
| 2026-05-04 17:57 | 24.95988 | -78.56214 | 23965 ft | 396 kts | 264° |
| 2026-05-04 17:57 | 24.95739 | -78.59233 | 23960 ft | 396 kts | 264° |
| 2026-05-04 17:57 | 24.95542 | -78.62269 | 23950 ft | 397 kts | 268° |
| 2026-05-04 17:58 | 24.95701 | -78.65307 | 23955 ft | 398 kts | 275° |
| 2026-05-04 17:58 | 24.96147 | -78.68311 | 23967 ft | 398 kts | 278° |
| 2026-05-04 17:58 | 24.96602 | -78.71329 | 23970 ft | 398 kts | 277° |
| 2026-05-04 17:58 | 24.97036 | -78.74340 | 23975 ft | 398 kts | 277° |
| 2026-05-04 17:59 | 24.97474 | -78.77318 | 23973 ft | 399 kts | 277° |
| 2026-05-04 17:59 | 24.97929 | -78.80332 | 23973 ft | 399 kts | 278° |
| 2026-05-04 17:59 | 24.98824 | -78.86373 | 23976 ft | 399 kts | 277° |
| 2026-05-04 18:00 | 24.99269 | -78.89395 | 23974 ft | 399 kts | 277° |
| 2026-05-04 18:00 | 24.99715 | -78.92403 | 23977 ft | 399 kts | 277° |
| 2026-05-04 18:00 | 25.00161 | -78.95426 | 23974 ft | 399 kts | 277° |
| 2026-05-04 18:00 | 25.00604 | -78.98440 | 23974 ft | 399 kts | 277° |
| 2026-05-04 18:01 | 25.01048 | -79.01456 | 23978 ft | 399 kts | 277° |
| 2026-05-04 18:01 | 25.01490 | -79.04470 | 23975 ft | 399 kts | 277° |
| 2026-05-04 18:01 | 25.01941 | -79.07484 | 23974 ft | 399 kts | 278° |
| 2026-05-04 18:02 | 25.03748 | -79.13290 | 23960 ft | 404 kts | 293° |
| 2026-05-04 18:02 | 25.05180 | -79.15961 | 23964 ft | 406 kts | 300° |
| 2026-05-04 18:02 | 25.06754 | -79.18549 | 23966 ft | 406 kts | 300° |
| 2026-05-04 18:02 | 25.08303 | -79.21149 | 23975 ft | 406 kts | 300° |
| 2026-05-04 18:03 | 25.09850 | -79.23755 | 23979 ft | 406 kts | 300° |
| 2026-05-04 18:03 | 25.11408 | -79.26353 | 23766 ft | 411 kts | 300° |
| 2026-05-04 18:03 | 25.13003 | -79.29007 | 23048 ft | 413 kts | 300° |
| 2026-05-04 18:03 | 25.14569 | -79.31616 | 22297 ft | 403 kts | 300° |
| 2026-05-04 18:04 | 25.16094 | -79.34170 | 21565 ft | 391 kts | 300° |
| 2026-05-04 18:04 | 25.17562 | -79.36627 | 20844 ft | 376 kts | 300° |
| 2026-05-04 18:04 | 25.20345 | -79.41288 | 19456 ft | 352 kts | 299° |
| 2026-05-04 18:05 | 25.21660 | -79.43495 | 18793 ft | 345 kts | 299° |
| 2026-05-04 18:05 | 25.22989 | -79.45726 | 18104 ft | 340 kts | 299° |
| 2026-05-04 18:05 | 25.24267 | -79.47869 | 17380 ft | 337 kts | 299° |
| 2026-05-04 18:05 | 25.25547 | -79.50017 | 16663 ft | 333 kts | 299° |
| 2026-05-04 18:06 | 25.28068 | -79.54252 | 15276 ft | 326 kts | 299° |
| 2026-05-04 18:06 | 25.29313 | -79.56344 | 14600 ft | 323 kts | 299° |
| 2026-05-04 18:06 | 25.30540 | -79.58406 | 13948 ft | 319 kts | 299° |
| 2026-05-04 18:07 | 25.31749 | -79.60442 | 13218 ft | 316 kts | 299° |
| 2026-05-04 18:07 | 25.32951 | -79.62464 | 12492 ft | 314 kts | 299° |
| 2026-05-04 18:07 | 25.34146 | -79.64476 | 11782 ft | 312 kts | 300° |
| 2026-05-04 18:07 | 25.35337 | -79.66482 | 11090 ft | 310 kts | 300° |
| 2026-05-04 18:08 | 25.36516 | -79.68470 | 10411 ft | 308 kts | 300° |
| 2026-05-04 18:08 | 25.37664 | -79.70402 | 10277 ft | 290 kts | 301° |
| 2026-05-04 18:08 | 25.38741 | -79.72212 | 10386 ft | 275 kts | 300° |
| 2026-05-04 18:08 | 25.39871 | -79.73954 | 10392 ft | 287 kts | 302° |
| 2026-05-04 18:09 | 25.42281 | -79.77763 | 10310 ft | 305 kts | 302° |
| 2026-05-04 18:09 | 25.44858 | -79.81759 | 9006 ft | 325 kts | 303° |
| 2026-05-04 18:10 | 25.46061 | -79.83618 | 9009 ft | 274 kts | 303° |
| 2026-05-04 18:10 | 25.47164 | -79.85348 | 8991 ft | 273 kts | 302° |
| 2026-05-04 18:10 | 25.48242 | -79.87040 | 8988 ft | 266 kts | 303° |
| 2026-05-04 18:10 | 25.49300 | -79.88688 | 8992 ft | 260 kts | 303° |
| 2026-05-04 18:11 | 25.50345 | -79.90318 | 8994 ft | 259 kts | 302° |
| 2026-05-04 18:11 | 25.51388 | -79.91949 | 8995 ft | 260 kts | 302° |
| 2026-05-04 18:11 | 25.52432 | -79.93580 | 8998 ft | 260 kts | 303° |
| 2026-05-04 18:11 | 25.53467 | -79.95198 | 8995 ft | 260 kts | 303° |
| 2026-05-04 18:12 | 25.54528 | -79.96856 | 8998 ft | 260 kts | 303° |
| 2026-05-04 18:12 | 25.55561 | -79.98471 | 9001 ft | 260 kts | 303° |
| 2026-05-04 18:12 | 25.56605 | -80.00105 | 9001 ft | 260 kts | 303° |
| 2026-05-04 18:12 | 25.57650 | -80.01740 | 9003 ft | 259 kts | 303° |
| 2026-05-04 18:13 | 25.58691 | -80.03370 | 9008 ft | 259 kts | 303° |
| 2026-05-04 18:13 | 25.59734 | -80.05003 | 9012 ft | 260 kts | 303° |
| 2026-05-04 18:13 | 25.61818 | -80.08268 | 9017 ft | 260 kts | 303° |
| 2026-05-04 18:14 | 25.62511 | -80.09354 | 9015 ft | 260 kts | 303° |
| 2026-05-04 18:14 | 25.63553 | -80.10988 | 9013 ft | 260 kts | 303° |
| 2026-05-04 18:14 | 25.64595 | -80.12623 | 9018 ft | 260 kts | 302° |
| 2026-05-04 18:15 | 25.66375 | -80.16107 | 8771 ft | 264 kts | 292° |
| 2026-05-04 18:15 | 25.67926 | -80.19832 | 8244 ft | 265 kts | 294° |
| 2026-05-04 18:15 | 25.68719 | -80.21672 | 7973 ft | 263 kts | 294° |
| 2026-05-04 18:16 | 25.69493 | -80.23492 | 7703 ft | 260 kts | 294° |
| 2026-05-04 18:16 | 25.70262 | -80.25307 | 7441 ft | 258 kts | 294° |
| 2026-05-04 18:16 | 25.70998 | -80.27109 | 7166 ft | 255 kts | 290° |
| 2026-05-04 18:17 | 25.71094 | -80.30977 | 6538 ft | 257 kts | 267° |
| 2026-05-04 18:17 | 25.70997 | -80.32973 | 6080 ft | 260 kts | 268° |
| 2026-05-04 18:17 | 25.70818 | -80.36943 | 5062 ft | 238 kts | 268° |
| 2026-05-04 18:18 | 25.70726 | -80.38672 | 4481 ft | 216 kts | 268° |
| 2026-05-04 18:18 | 25.70612 | -80.40314 | 3889 ft | 215 kts | 268° |
| 2026-05-04 18:18 | 25.70478 | -80.42017 | 3316 ft | 227 kts | 268° |
| 2026-05-04 18:18 | 25.70337 | -80.43779 | 2759 ft | 232 kts | 268° |
| 2026-05-04 18:19 | 25.70051 | -80.47358 | 1998 ft | 227 kts | 267° |
| 2026-05-04 18:19 | 25.70078 | -80.49089 | 1938 ft | 228 kts | 287° |
| 2026-05-04 18:19 | 25.70975 | -80.50468 | 1894 ft | 221 kts | 329° |
| 2026-05-04 18:20 | 25.72399 | -80.50981 | 1980 ft | 215 kts | 352° |
| 2026-05-04 18:20 | 25.73808 | -80.51224 | 2012 ft | 199 kts | 353° |
| 2026-05-04 18:20 | 25.75166 | -80.51462 | 2013 ft | 195 kts | 354° |
| 2026-05-04 18:20 | 25.76453 | -80.51120 | 1921 ft | 193 kts | 33° |
| 2026-05-04 18:21 | 25.77428 | -80.50097 | 2014 ft | 195 kts | 46° |
| 2026-05-04 18:21 | 25.77935 | -80.48698 | 2009 ft | 198 kts | 76° |
| 2026-05-04 18:21 | 25.78141 | -80.47208 | 2020 ft | 199 kts | 77° |
| 2026-05-04 18:21 | 25.78359 | -80.45754 | 1991 ft | 177 kts | 75° |
| 2026-05-04 18:22 | 25.78619 | -80.44499 | 1990 ft | 165 kts | 71° |
| 2026-05-04 18:22 | 25.78907 | -80.43228 | 2036 ft | 176 kts | 72° |
| 2026-05-04 18:22 | 25.79200 | -80.41890 | 2036 ft | 179 kts | 73° |
| 2026-05-04 18:22 | 25.79497 | -80.40515 | 1852 ft | 188 kts | 74° |
| 2026-05-04 18:23 | 25.79807 | -80.39085 | 1602 ft | 193 kts | 73° |
| 2026-05-04 18:23 | 25.79997 | -80.37630 | 1314 ft | 183 kts | 85° |
| 2026-05-04 18:23 | 25.80028 | -80.36333 | 1049 ft | 153 kts | 83° |
| 2026-05-04 18:23 | 25.80070 | -80.35252 | 853 ft | 129 kts | 83° |
| 2026-05-04 18:24 | 25.80112 | -80.34311 | 695 ft | 117 kts | 83° |
| 2026-05-04 18:24 | 25.80153 | -80.33431 | 537 ft | 115 kts | 83° |
| 2026-05-04 18:24 | 25.80201 | -80.32527 | 419 ft | 121 kts | 85° |
| 2026-05-04 18:24 | 25.80226 | -80.31590 | 334 ft | 121 kts | 88° |
| 2026-05-04 18:25 | 25.80271 | -80.30646 | 133 ft | 123 kts | 85° |
| 2026-05-04 18:25 | 25.80305 | -80.29744 | 27 ft | 107 kts | 85° |
| 2026-05-04 18:25 | 25.80340 | -80.29050 | 14 ft | 53 kts | 90° |
| 2026-05-04 18:25 | 25.80350 | -80.28739 | 14 ft | 32 kts | 80° |
| 2026-05-04 18:26 | 25.80419 | -80.28584 | 13 ft | 10 kts | 33° |
| 2026-05-04 18:26 | 25.80460 | -80.28604 | 13 ft | 6 kts | 291° |
| 2026-05-04 18:26 | 25.80461 | -80.28676 | 14 ft | 13 kts | 264° |
| 2026-05-04 18:26 | 25.80455 | -80.28785 | 13 ft | 15 kts | 266° |
| 2026-05-04 18:27 | 25.80449 | -80.28901 | 11 ft | 16 kts | 267° |
| 2026-05-04 18:27 | 25.80460 | -80.29015 | 11 ft | 14 kts | 316° |
| 2026-05-04 18:27 | 25.80537 | -80.29023 | 11 ft | 11 kts | 30° |
| 2026-05-04 18:27 | 25.80570 | -80.29006 | 11 ft | 0 kts | 12° |